createdAt,value
2019-06-20T00:03:33.996Z,65.72
2019-06-20T00:09:37.776Z,66
2019-06-20T00:15:41.286Z,67.04
2019-06-20T00:22:02.420Z,67.52
2019-06-20T00:28:06.224Z,67.31
2019-06-20T00:34:09.797Z,66.95
2019-06-20T00:40:13.559Z,66.55
2019-06-20T00:46:34.380Z,66.37
2019-06-20T00:52:38.266Z,66.54
2019-06-20T00:58:42.017Z,66.41
2019-06-20T01:04:45.853Z,66.03
2019-06-20T01:10:49.465Z,65.98
2019-06-20T01:16:53.040Z,66.17
2019-06-20T01:22:56.932Z,66.43
2019-06-20T01:29:00.735Z,66.96
2019-06-20T01:35:04.641Z,67.32
2019-06-20T01:41:08.264Z,67.55
2019-06-20T01:47:12.027Z,67.58
2019-06-20T01:53:50.423Z,68
2019-06-20T02:00:28.753Z,68.18
2019-06-20T02:06:32.525Z,68.3
2019-06-20T02:12:36.002Z,67.98
2019-06-20T02:18:39.705Z,67.97
2019-06-20T02:24:43.438Z,68.61
2019-06-20T02:31:21.839Z,68.91
2019-06-20T02:37:25.575Z,69.05
2019-06-20T02:43:29.481Z,69.28
2019-06-20T02:49:50.385Z,69.49
2019-06-20T02:55:54.287Z,69.8
2019-06-20T03:01:58.155Z,69.92
2019-06-20T03:08:19.263Z,69.76
2019-06-20T03:14:22.875Z,69.33
2019-06-20T03:20:27.524Z,68.78
2019-06-20T03:26:31.635Z,68.57
2019-06-20T03:32:52.733Z,68.38
2019-06-20T03:38:56.659Z,68.06
2019-06-20T03:45:02.371Z,67.91
2019-06-20T03:51:06.654Z,67.74
2019-06-20T03:57:27.752Z,67.6
2019-06-20T04:03:31.736Z,67.52
2019-06-20T04:09:35.482Z,67.38
2019-06-20T04:16:14.085Z,67.2
2019-06-20T04:22:18.205Z,66.86
2019-06-20T04:28:22.355Z,66.36
2019-06-20T04:34:26.605Z,65.7
2019-06-20T04:40:33.280Z,64.51
2019-06-20T04:46:37.482Z,62.67
2019-06-20T04:52:41.377Z,61.17
2019-06-20T04:58:45.615Z,59.18
2019-06-20T05:04:50.890Z,57.47
2019-06-20T05:10:55.081Z,55.71
2019-06-20T05:16:59.309Z,54.03
2019-06-20T05:23:06.547Z,50.6
2019-06-20T05:29:10.715Z,48.78
2019-06-20T05:35:14.544Z,48.04
2019-06-20T05:41:18.697Z,46.45
2019-06-20T05:47:22.907Z,45.09
2019-06-20T05:53:26.940Z,45.3
2019-06-20T05:59:30.985Z,45.9
2019-06-20T06:05:37.046Z,46.6
2019-06-20T06:11:41.786Z,45.24
2019-06-20T06:17:45.766Z,45.19
2019-06-20T06:23:49.894Z,46.05
2019-06-20T06:29:53.950Z,46.4
2019-06-20T06:36:08.040Z,41.09
2019-06-20T06:42:11.942Z,34.39
2019-06-20T06:48:17.225Z,34.77
2019-06-20T06:54:21.477Z,38.09
2019-06-20T07:00:25.633Z,39.62
2019-06-20T07:06:29.767Z,38.58
2019-06-20T07:12:33.736Z,39.5
2019-06-20T07:18:44.570Z,38.42
2019-06-20T07:24:48.571Z,36.26
2019-06-20T07:30:52.645Z,34.75
2019-06-20T07:36:56.662Z,33.93
2019-06-20T07:43:00.632Z,32.44
2019-06-20T07:49:13.538Z,30.07
2019-06-20T07:55:17.640Z,23.08
2019-06-20T08:01:21.771Z,19.53
2019-06-20T08:07:25.956Z,13.72
2019-06-20T08:13:47.549Z,8.93
2019-06-20T08:19:51.652Z,12.83
2019-06-20T15:18:31.713Z,50.97
2019-06-20T15:24:35.708Z,48.95
2019-06-20T15:30:43.563Z,46.95
2019-06-20T15:36:50.285Z,47.68
2019-06-20T15:42:58.736Z,47.55
2019-06-20T15:49:16.569Z,47.4
2019-06-20T15:55:20.549Z,48.5
2019-06-20T16:01:24.628Z,48.88
2019-06-20T16:07:28.698Z,48.62
2019-06-20T16:13:32.780Z,47.19
2019-06-20T16:19:36.840Z,46.94
2019-06-20T16:25:40.660Z,47
2019-06-20T16:31:44.774Z,46.73
2019-06-20T16:38:02.247Z,46.24
2019-06-20T16:44:06.597Z,46.99
2019-06-20T16:50:10.808Z,46.68
2019-06-20T16:56:14.678Z,45.79
2019-06-20T17:02:18.966Z,46.51
2019-06-20T17:08:23.071Z,45.8
2019-06-20T17:14:30.028Z,45.22
2019-06-20T17:20:33.923Z,46.83
2019-06-20T17:26:37.945Z,48.18
2019-06-20T17:32:41.768Z,48.56
2019-06-20T17:39:03.109Z,49.1
2019-06-20T17:45:06.914Z,49.33
2019-06-20T17:51:10.767Z,49.43
2019-06-20T17:57:14.668Z,48.86
2019-06-20T18:03:18.849Z,48.6
2019-06-20T18:09:25.958Z,49.22
2019-06-20T18:15:33.049Z,49.21
2019-06-20T18:21:37.669Z,48.67
2019-06-20T18:27:41.867Z,47.38
2019-06-20T18:33:45.822Z,46.06
2019-06-20T18:39:49.868Z,46.35
2019-06-20T18:45:54.447Z,47.23
2019-06-20T18:51:58.562Z,47.31
2019-06-20T18:58:02.493Z,48.02
2019-06-20T19:04:06.368Z,49.08
2019-06-20T19:10:10.242Z,50.47
2019-06-20T19:16:14.379Z,51.48
2019-06-20T19:22:18.531Z,52.3
2019-06-20T19:28:22.544Z,52.77
2019-06-20T19:34:27.219Z,53.45
2019-06-20T19:40:31.425Z,54.46
2019-06-20T19:46:35.106Z,57.02
2019-06-20T19:52:39.106Z,57.93
2019-06-20T19:58:43.008Z,58.73
2019-06-20T20:04:47.027Z,60.1
2019-06-20T20:10:50.814Z,60.84
2019-06-20T20:16:54.738Z,61.08
2019-06-20T20:22:58.386Z,61.59
2019-06-20T20:29:19.527Z,62.08
2019-06-20T20:35:34.759Z,62.59
2019-06-20T20:42:10.653Z,62.98
2019-06-20T20:48:14.474Z,63.35
2019-06-20T20:54:17.903Z,63.65
2019-06-20T21:00:39.015Z,63.4
2019-06-20T21:07:00.193Z,63.29
2019-06-20T21:13:55.898Z,63.36
2019-06-20T21:19:59.875Z,63.36
2019-06-20T21:26:03.696Z,63.46
2019-06-20T21:32:24.597Z,64.25
2019-06-20T21:38:28.345Z,64.47
2019-06-20T21:44:32.106Z,64.66
2019-06-20T21:50:36.027Z,64.9
2019-06-20T21:56:39.792Z,65.5
2019-06-20T22:02:43.318Z,65.77
2019-06-20T22:08:47.054Z,65.92
2019-06-20T22:14:50.795Z,66.21
2019-06-20T22:20:54.594Z,66.53
2019-06-20T22:26:58.353Z,66.69
2019-06-20T22:33:02.063Z,66.73
2019-06-20T22:39:05.824Z,66.74
2019-06-20T22:45:09.491Z,67.24
2019-06-20T22:51:14.183Z,67.75
2019-06-20T22:57:17.531Z,67.94
2019-06-20T23:03:21.065Z,67.85
2019-06-20T23:09:27.229Z,67.49
2019-06-20T23:15:40.409Z,66.98
2019-06-20T23:21:44.468Z,66.82
2019-06-20T23:28:05.343Z,66.95
2019-06-20T23:34:26.335Z,67.01
2019-06-20T23:40:30.095Z,66.8
2019-06-20T23:46:33.749Z,66.17
2019-06-20T23:52:37.601Z,65.62
2019-06-20T23:58:43.782Z,65.69
